createdAt,value
2022-12-23T00:01:22.822Z,11.63
2022-12-23T00:03:50.943Z,11.45
2022-12-23T00:06:18.926Z,11.70
2022-12-23T00:08:46.912Z,11.83
2022-12-23T00:11:16.354Z,11.81
2022-12-23T00:14:02.228Z,11.53
2022-12-23T00:16:29.751Z,11.80
2022-12-23T00:18:57.015Z,11.43
2022-12-23T00:21:24.441Z,11.72
2022-12-23T00:23:51.970Z,10.98
2022-12-23T00:26:23.550Z,11.72
2022-12-23T00:28:50.966Z,11.90
2022-12-23T00:31:18.916Z,11.87
2022-12-23T00:33:47.874Z,12.08
2022-12-23T00:36:17.284Z,11.99
2022-12-23T00:39:03.493Z,12.17
2022-12-23T00:41:49.388Z,11.72
2022-12-23T00:44:16.878Z,11.92
2022-12-23T00:46:44.110Z,11.96
2022-12-23T00:49:30.601Z,11.94
2022-12-23T00:51:58.202Z,11.95
2022-12-23T00:54:25.384Z,12.08
2022-12-23T00:56:52.609Z,12.06
2022-12-23T00:59:20.279Z,11.94
2022-12-23T01:02:06.112Z,11.85
2022-12-23T01:04:52.484Z,11.81
2022-12-23T01:07:20.051Z,12.01
2022-12-23T01:09:47.589Z,12.03
2022-12-23T01:12:14.794Z,12.04
2022-12-23T01:14:42.043Z,11.78
2022-12-23T01:17:09.608Z,11.94
2022-12-23T01:19:36.920Z,11.89
2022-12-23T01:22:04.139Z,11.94
2022-12-23T01:24:32.015Z,11.80
2022-12-23T01:26:59.704Z,11.76
2022-12-23T01:29:26.872Z,11.97
2022-12-23T01:31:54.417Z,12.05
2022-12-23T01:34:21.693Z,12.00
2022-12-23T01:36:48.872Z,11.96
2022-12-23T01:39:16.312Z,11.82
2022-12-23T01:42:02.091Z,11.92
2022-12-23T01:44:48.310Z,12.05
2022-12-23T01:47:34.183Z,11.91
2022-12-23T01:50:04.341Z,12.14
2022-12-23T01:52:32.074Z,11.91
2022-12-23T01:54:59.324Z,11.91
2022-12-23T01:57:26.782Z,11.86
2022-12-23T02:00:12.680Z,11.79
2022-12-23T02:02:58.674Z,11.62
2022-12-23T02:05:26.236Z,11.88
2022-12-23T02:08:12.028Z,11.87
2022-12-23T02:11:02.951Z,11.96
2022-12-23T02:13:32.932Z,11.70
2022-12-23T02:16:18.538Z,11.55
2022-12-23T02:18:48.655Z,11.85
2022-12-23T02:21:25.107Z,11.80
2022-12-23T02:23:57.240Z,11.21
2022-12-23T02:26:24.711Z,11.57
2022-12-23T02:29:01.275Z,11.57
2022-12-23T02:31:47.633Z,11.59
2022-12-23T02:34:27.812Z,11.37
2022-12-23T02:36:55.330Z,11.29
2022-12-23T02:39:51.845Z,11.22
2022-12-23T02:42:32.589Z,11.12
2022-12-23T02:44:59.772Z,10.42
2022-12-23T02:47:34.871Z,9.62
2022-12-23T02:50:04.008Z,9.09
2022-12-23T02:52:31.930Z,8.74
2022-12-23T02:55:01.019Z,8.63
2022-12-23T02:57:29.808Z,8.07
2022-12-23T02:59:57.258Z,8.45
2022-12-23T03:02:24.576Z,8.82
2022-12-23T03:04:51.880Z,9.15
2022-12-23T03:07:33.830Z,8.99
2022-12-23T03:10:04.264Z,9.30
2022-12-23T03:12:52.221Z,8.06
2022-12-23T03:15:25.104Z,7.69
2022-12-23T03:17:57.806Z,8.28
2022-12-23T03:20:44.627Z,8.83
2022-12-23T03:23:18.293Z,8.96
2022-12-23T03:25:52.323Z,8.48
2022-12-23T03:28:21.632Z,7.41
2022-12-23T03:30:50.821Z,7.62
2022-12-23T03:33:24.581Z,8.66
2022-12-23T03:35:53.773Z,8.18
2022-12-23T03:38:20.982Z,8.59
2022-12-23T03:40:49.912Z,9.09
2022-12-23T03:43:22.334Z,9.64
2022-12-23T03:45:50.716Z,8.91
2022-12-23T03:48:19.819Z,9.66
2022-12-23T03:50:47.558Z,9.90
2022-12-23T03:53:16.975Z,9.73
2022-12-23T03:55:49.497Z,10.00
2022-12-23T03:58:24.310Z,9.37
2022-12-23T04:00:57.696Z,10.01
2022-12-23T04:03:25.125Z,10.23
2022-12-23T04:05:56.412Z,8.59
2022-12-23T04:08:25.564Z,10.10
2022-12-23T04:10:52.982Z,10.23
2022-12-23T04:13:20.366Z,10.47
2022-12-23T04:15:47.579Z,9.61
2022-12-23T04:18:16.398Z,9.91
2022-12-23T04:20:43.564Z,8.28
2022-12-23T04:23:10.788Z,9.82
2022-12-23T04:25:38.595Z,10.05
2022-12-23T04:28:05.820Z,9.31
2022-12-23T04:30:34.645Z,8.14
2022-12-23T04:33:03.158Z,8.29
2022-12-23T04:35:30.360Z,7.92
2022-12-23T04:37:57.579Z,9.10
2022-12-23T04:40:25.102Z,9.37
2022-12-23T04:42:52.245Z,9.17
2022-12-23T04:45:19.523Z,9.28
2022-12-23T04:47:47.034Z,8.37
2022-12-23T04:50:14.905Z,8.34
2022-12-23T04:52:42.618Z,7.77
2022-12-23T04:55:10.360Z,7.52
2022-12-23T04:57:37.510Z,8.06
2022-12-23T05:00:05.206Z,7.88
2022-12-23T05:02:32.775Z,7.96
2022-12-23T05:05:00.042Z,7.86
2022-12-23T05:07:27.238Z,8.68
2022-12-23T05:09:54.725Z,8.99
2022-12-23T05:12:21.848Z,9.37
2022-12-23T05:14:49.021Z,9.63
2022-12-23T05:17:16.525Z,9.72
2022-12-23T05:19:43.721Z,9.75
2022-12-23T05:22:10.889Z,9.55
2022-12-23T05:24:38.409Z,10.00
2022-12-23T05:27:05.601Z,10.04
2022-12-23T05:29:32.829Z,10.11
2022-12-23T05:32:00.360Z,10.13
2022-12-23T05:34:27.694Z,10.12
2022-12-23T05:36:54.866Z,9.96
2022-12-23T05:39:22.302Z,9.35
2022-12-23T05:41:49.505Z,9.75
2022-12-23T05:44:16.820Z,9.74
2022-12-23T05:46:44.421Z,9.62
2022-12-23T05:49:11.833Z,9.45
2022-12-23T05:51:39.060Z,9.14
2022-12-23T05:54:06.471Z,8.71
2022-12-23T05:56:33.659Z,8.72
2022-12-23T05:59:00.815Z,9.13
2022-12-23T06:01:28.886Z,9.35
2022-12-23T06:03:56.518Z,9.56
2022-12-23T06:06:23.796Z,9.76
2022-12-23T06:08:55.734Z,8.99
2022-12-23T06:11:26.776Z,8.99
2022-12-23T06:13:54.005Z,9.30
2022-12-23T06:16:21.317Z,9.80
2022-12-23T06:18:48.854Z,9.78
2022-12-23T06:21:16.094Z,9.45
2022-12-23T06:23:43.361Z,8.55
2022-12-23T06:26:10.862Z,9.18
2022-12-23T06:28:38.031Z,8.23
2022-12-23T06:31:05.263Z,8.37
2022-12-23T06:33:32.777Z,8.50
2022-12-23T06:36:00.105Z,9.36
2022-12-23T06:38:27.320Z,9.48
2022-12-23T06:40:54.837Z,9.83
2022-12-23T06:43:22.040Z,9.70
2022-12-23T06:45:49.674Z,9.65
2022-12-23T06:48:17.402Z,10.05
2022-12-23T06:50:44.732Z,9.99
2022-12-23T06:53:12.202Z,9.30
2022-12-23T06:55:39.681Z,8.89
2022-12-23T06:58:06.822Z,9.36
2022-12-23T07:00:34.328Z,9.43
2022-12-23T07:03:01.927Z,9.60
2022-12-23T07:05:36.475Z,8.84
2022-12-23T07:08:04.938Z,8.63
2022-12-23T07:10:32.135Z,7.91
2022-12-23T07:12:59.378Z,7.97
2022-12-23T07:15:26.820Z,7.54
2022-12-23T07:17:54.380Z,8.37
2022-12-23T07:20:21.540Z,8.82
2022-12-23T07:22:50.337Z,8.13
2022-12-23T07:25:17.583Z,8.91
2022-12-23T07:27:44.795Z,8.83
2022-12-23T07:30:12.345Z,8.70
2022-12-23T07:32:39.626Z,9.06
2022-12-23T07:35:06.898Z,8.40
2022-12-23T07:37:34.663Z,8.25
2022-12-23T07:40:08.075Z,9.32
2022-12-23T07:42:45.687Z,9.15
2022-12-23T07:45:13.945Z,8.73
2022-12-23T07:47:41.619Z,9.28
2022-12-23T07:50:09.109Z,8.79
2022-12-23T07:52:36.292Z,8.92
2022-12-23T07:55:03.918Z,9.45
2022-12-23T07:57:37.455Z,9.03
2022-12-23T08:00:05.641Z,9.78
2022-12-23T08:02:39.672Z,9.41
2022-12-23T08:05:07.654Z,9.60
2022-12-23T08:07:34.924Z,9.36
2022-12-23T08:10:02.267Z,9.31
2022-12-23T08:12:30.038Z,8.38
2022-12-23T08:14:57.331Z,9.24
2022-12-23T08:17:28.006Z,8.13
2022-12-23T08:19:55.627Z,9.29
2022-12-23T08:22:22.970Z,8.44
2022-12-23T08:24:50.130Z,9.20
2022-12-23T08:27:17.703Z,8.80
2022-12-23T08:29:44.944Z,8.82
2022-12-23T08:32:12.311Z,9.74
2022-12-23T08:34:39.785Z,9.71
2022-12-23T08:37:06.997Z,8.20
2022-12-23T08:39:34.297Z,8.71
2022-12-23T08:42:01.915Z,9.33
2022-12-23T08:44:29.796Z,9.64
2022-12-23T08:46:57.065Z,9.60
2022-12-23T08:49:24.510Z,8.65
2022-12-23T08:51:51.791Z,9.33
2022-12-23T08:54:20.496Z,8.95
2022-12-23T08:56:48.037Z,7.93
2022-12-23T08:59:19.328Z,8.26
2022-12-23T09:01:47.161Z,7.47
2022-12-23T09:04:14.726Z,6.89
2022-12-23T09:06:42.403Z,7.50
2022-12-23T09:09:10.467Z,8.63
2022-12-23T09:11:38.118Z,9.02
2022-12-23T09:14:05.748Z,8.85
2022-12-23T09:16:33.108Z,9.08
2022-12-23T09:19:00.685Z,9.31
2022-12-23T09:21:27.939Z,8.97
2022-12-23T09:23:55.126Z,9.66
2022-12-23T09:26:23.716Z,9.74
2022-12-23T09:28:51.327Z,9.38
2022-12-23T09:31:18.783Z,9.44
2022-12-23T09:33:47.010Z,9.37
2022-12-23T09:36:14.204Z,8.66
2022-12-23T09:38:41.634Z,8.68
2022-12-23T09:41:12.992Z,8.33
2022-12-23T09:43:43.717Z,9.05
2022-12-23T09:46:14.334Z,8.83
2022-12-23T09:48:45.589Z,8.57
2022-12-23T09:51:13.250Z,8.66
2022-12-23T09:53:52.900Z,9.49
2022-12-23T09:56:24.123Z,8.50
2022-12-23T09:58:53.798Z,9.66
2022-12-23T10:01:50.813Z,9.55
2022-12-23T10:04:38.112Z,9.27
2022-12-23T10:07:05.348Z,8.97
2022-12-23T10:09:33.084Z,8.06
2022-12-23T10:12:00.337Z,9.22
2022-12-23T10:14:31.396Z,9.91
2022-12-23T10:17:00.241Z,9.94
2022-12-23T10:19:32.330Z,8.59
2022-12-23T10:22:03.740Z,9.67
2022-12-23T10:24:35.230Z,9.28
2022-12-23T10:27:21.604Z,10.12
2022-12-23T10:29:48.786Z,10.20
2022-12-23T10:32:34.969Z,10.10
2022-12-23T10:35:21.079Z,10.35
2022-12-23T10:37:52.165Z,10.20
2022-12-23T10:40:39.731Z,10.01
2022-12-23T10:43:22.568Z,10.13
2022-12-23T10:45:49.749Z,10.02
2022-12-23T10:48:35.876Z,10.04
2022-12-23T10:51:13.275Z,7.61
2022-12-23T10:53:42.960Z,9.75
2022-12-23T10:56:10.294Z,9.66
2022-12-23T10:58:38.679Z,10.00
2022-12-23T11:01:14.156Z,10.51
2022-12-23T11:03:55.975Z,10.15
2022-12-23T11:06:23.541Z,10.36
2022-12-23T11:08:50.813Z,10.38
2022-12-23T11:11:18.040Z,10.03
2022-12-23T11:13:46.043Z,10.63
2022-12-23T11:16:13.477Z,10.62
2022-12-23T11:18:52.027Z,10.41
2022-12-23T11:21:19.674Z,10.84
2022-12-23T11:23:46.853Z,10.86
2022-12-23T11:26:17.800Z,10.73
2022-12-23T11:28:49.022Z,10.79
2022-12-23T11:31:17.359Z,10.81
2022-12-23T11:33:52.221Z,10.92
2022-12-23T11:36:23.837Z,10.91
2022-12-23T11:39:09.599Z,10.85
2022-12-23T11:41:38.015Z,10.94
2022-12-23T11:44:26.401Z,11.14
2022-12-23T11:46:53.838Z,10.39
2022-12-23T11:49:22.640Z,10.47
2022-12-23T11:52:09.590Z,11.13
2022-12-23T11:54:37.263Z,11.19
2022-12-23T11:57:06.137Z,11.15
2022-12-23T11:59:40.162Z,11.37
2022-12-23T12:02:14.771Z,11.10
2022-12-23T12:04:42.350Z,11.48
2022-12-23T12:07:12.176Z,11.36
2022-12-23T12:09:39.735Z,11.55
2022-12-23T12:12:07.984Z,11.50
2022-12-23T12:14:42.826Z,11.29
2022-12-23T12:17:14.529Z,11.52
2022-12-23T12:20:02.033Z,11.63
2022-12-23T12:22:35.386Z,10.88
2022-12-23T12:25:22.926Z,11.62
2022-12-23T12:27:58.264Z,10.60
2022-12-23T12:30:25.526Z,11.24
2022-12-23T12:32:56.048Z,11.32
2022-12-23T12:35:27.884Z,10.97
2022-12-23T12:37:57.008Z,10.99
2022-12-23T12:40:44.614Z,11.05
2022-12-23T12:43:27.009Z,11.18
2022-12-23T12:46:03.458Z,10.93
2022-12-23T12:48:40.218Z,11.12
2022-12-23T12:51:17.100Z,11.53
2022-12-23T12:54:06.317Z,11.37
2022-12-23T12:56:39.521Z,11.28
2022-12-23T12:59:08.566Z,11.32
2022-12-23T13:01:45.314Z,11.29
2022-12-23T13:04:26.164Z,11.47
2022-12-23T13:06:59.866Z,11.41
2022-12-23T13:09:47.145Z,11.43
2022-12-23T13:12:30.663Z,11.65
2022-12-23T13:14:58.026Z,11.24
2022-12-23T13:17:40.633Z,11.60
2022-12-23T13:20:17.314Z,11.58
2022-12-23T13:22:45.334Z,11.77
2022-12-23T13:25:23.115Z,11.73
2022-12-23T13:27:53.264Z,11.77
2022-12-23T13:30:23.647Z,11.92
2022-12-23T13:32:50.789Z,11.97
2022-12-23T13:35:18.849Z,11.60
2022-12-23T13:38:04.989Z,11.81
2022-12-23T13:40:41.151Z,12.15
2022-12-23T13:43:16.314Z,12.23
2022-12-23T13:45:43.647Z,12.17
2022-12-23T13:48:16.610Z,12.19
2022-12-23T13:50:50.310Z,12.28
2022-12-23T13:53:27.246Z,12.21
2022-12-23T13:56:03.608Z,12.04
2022-12-23T13:58:34.096Z,12.33
2022-12-23T14:01:10.538Z,12.45
2022-12-23T14:03:38.684Z,12.46
2022-12-23T14:06:19.099Z,12.46
2022-12-23T14:08:47.583Z,12.50
2022-12-23T14:11:16.725Z,12.24
2022-12-23T14:13:45.256Z,12.30
2022-12-23T14:16:25.082Z,12.32
2022-12-23T14:18:52.326Z,12.36
2022-12-23T14:21:31.971Z,12.20
2022-12-23T14:24:18.338Z,12.44
2022-12-23T14:26:57.986Z,12.23
2022-12-23T14:30:06.831Z,12.38
2022-12-23T14:32:38.816Z,12.44
2022-12-23T14:35:16.351Z,12.46
2022-12-23T14:37:43.964Z,12.16
2022-12-23T14:40:29.847Z,12.48
2022-12-23T14:43:16.109Z,12.50
2022-12-23T14:45:43.477Z,12.33
2022-12-23T14:48:29.701Z,12.45
2022-12-23T14:50:57.958Z,12.33
2022-12-23T14:53:34.576Z,12.25
2022-12-23T14:56:11.029Z,12.05
2022-12-23T14:58:39.883Z,12.31
2022-12-23T15:01:13.126Z,12.45
2022-12-23T15:03:45.903Z,12.45
2022-12-23T15:06:15.446Z,12.43
2022-12-23T15:08:43.871Z,12.31
2022-12-23T15:11:15.816Z,12.45
2022-12-23T15:13:43.278Z,12.49
2022-12-23T15:16:15.343Z,12.47
2022-12-23T15:18:55.742Z,12.34
2022-12-23T15:21:29.896Z,12.27
2022-12-23T15:23:57.566Z,12.23
2022-12-23T15:26:26.344Z,12.29
2022-12-23T15:28:53.796Z,12.00
2022-12-23T15:31:27.438Z,12.28
2022-12-23T15:34:04.686Z,12.01
2022-12-23T15:36:37.069Z,12.22
2022-12-23T15:39:08.628Z,12.18
2022-12-23T15:41:46.116Z,12.18
2022-12-23T15:44:14.509Z,12.22
2022-12-23T15:46:42.196Z,12.08
2022-12-23T15:49:10.480Z,12.16
2022-12-23T15:52:06.366Z,12.16
2022-12-23T15:54:30.214Z,12.20
2022-12-23T15:56:58.043Z,12.10
2022-12-23T15:59:29.480Z,11.93
2022-12-23T16:01:57.118Z,12.01
2022-12-23T16:04:26.024Z,12.06
2022-12-23T16:06:53.673Z,12.00
2022-12-23T16:09:20.842Z,12.01
2022-12-23T16:11:53.725Z,11.92
2022-12-23T16:14:28.100Z,11.98
2022-12-23T16:16:58.268Z,11.98
2022-12-23T16:19:55.073Z,11.80
2022-12-23T16:22:22.559Z,11.84
2022-12-23T16:24:58.715Z,11.91
2022-12-23T16:27:33.978Z,11.80
2022-12-23T16:30:02.328Z,11.53
2022-12-23T16:32:30.439Z,11.42
2022-12-23T16:34:57.671Z,11.63
2022-12-23T16:37:24.832Z,11.62
2022-12-23T16:39:52.328Z,11.64
2022-12-23T16:42:19.581Z,11.73
2022-12-23T16:44:46.873Z,11.80
2022-12-23T16:47:15.178Z,11.64
2022-12-23T16:49:42.444Z,11.76
2022-12-23T16:52:09.806Z,11.72
2022-12-23T16:54:37.306Z,11.74
2022-12-23T16:57:04.536Z,11.81
2022-12-23T16:59:31.698Z,11.69
2022-12-23T17:02:03.438Z,11.80
2022-12-23T17:04:31.231Z,11.79
2022-12-23T17:06:59.064Z,11.74
2022-12-23T17:09:26.394Z,11.72
2022-12-23T17:11:53.562Z,11.77
2022-12-23T17:14:22.532Z,11.80
2022-12-23T17:16:50.005Z,11.71
2022-12-23T17:19:20.645Z,11.55
2022-12-23T17:21:53.351Z,11.68
2022-12-23T17:24:22.657Z,11.65
2022-12-23T17:26:50.123Z,11.41
2022-12-23T17:29:18.195Z,11.55
2022-12-23T17:31:45.410Z,11.66
2022-12-23T17:34:19.852Z,11.63
2022-12-23T17:36:50.320Z,11.62
2022-12-23T17:39:18.867Z,11.62
2022-12-23T17:41:46.122Z,11.42
2022-12-23T17:44:14.397Z,11.09
2022-12-23T17:46:41.796Z,11.13
2022-12-23T17:49:09.024Z,11.26
2022-12-23T17:51:36.583Z,11.21
2022-12-23T17:54:05.761Z,11.16
2022-12-23T17:56:33.064Z,11.05
2022-12-23T17:59:00.559Z,10.93
2022-12-23T18:01:29.970Z,11.05
2022-12-23T18:03:58.020Z,11.07
2022-12-23T18:06:25.720Z,11.00
2022-12-23T18:08:52.953Z,10.82
2022-12-23T18:11:29.289Z,11.01
2022-12-23T18:13:56.433Z,10.99
2022-12-23T18:16:24.033Z,10.72
2022-12-23T18:18:51.927Z,10.65
2022-12-23T18:21:25.625Z,10.81
2022-12-23T18:23:57.781Z,10.84
2022-12-23T18:26:25.042Z,10.97
2022-12-23T18:28:54.337Z,10.46
2022-12-23T18:31:22.871Z,9.66
2022-12-23T18:33:50.897Z,10.14
2022-12-23T18:36:25.519Z,10.26
2022-12-23T18:38:53.018Z,10.32
2022-12-23T18:41:21.137Z,10.35
2022-12-23T18:43:48.430Z,10.48
2022-12-23T18:46:15.699Z,10.60
2022-12-23T18:48:43.277Z,10.62
2022-12-23T18:51:12.908Z,10.49
2022-12-23T18:53:40.184Z,10.32
2022-12-23T18:56:09.899Z,10.08
2022-12-23T18:58:37.297Z,10.49
2022-12-23T19:01:04.616Z,10.71
2022-12-23T19:03:32.171Z,10.67
2022-12-23T19:06:06.633Z,10.84
2022-12-23T19:08:35.124Z,10.73
2022-12-23T19:11:02.434Z,10.87
2022-12-23T19:13:29.895Z,10.78
2022-12-23T19:15:57.368Z,10.80
2022-12-23T19:18:24.661Z,10.88
2022-12-23T19:20:51.913Z,11.05
2022-12-23T19:23:19.419Z,11.05
2022-12-23T19:25:54.561Z,10.81
2022-12-23T19:28:23.919Z,10.91
2022-12-23T19:30:51.212Z,10.79
2022-12-23T19:33:18.546Z,10.99
2022-12-23T19:35:46.108Z,10.93
2022-12-23T19:38:13.354Z,10.75
2022-12-23T19:40:40.572Z,11.03
2022-12-23T19:43:08.207Z,10.94
2022-12-23T19:45:35.401Z,11.24
2022-12-23T19:48:02.573Z,10.80
2022-12-23T19:50:30.094Z,11.06
2022-12-23T19:52:57.510Z,10.97
2022-12-23T19:55:24.935Z,11.15
2022-12-23T19:57:52.677Z,11.06
2022-12-23T20:00:19.889Z,11.16
2022-12-23T20:02:47.524Z,11.54
2022-12-23T20:05:17.358Z,11.16
2022-12-23T20:07:44.690Z,11.40
2022-12-23T20:10:12.226Z,11.45
2022-12-23T20:12:39.432Z,11.54
2022-12-23T20:15:07.012Z,11.45
2022-12-23T20:17:34.464Z,11.92
2022-12-23T20:20:01.846Z,11.77
2022-12-23T20:22:29.024Z,12.01
2022-12-23T20:24:57.124Z,10.57
2022-12-23T20:27:28.163Z,11.60
2022-12-23T20:29:55.591Z,11.60
2022-12-23T20:32:23.066Z,11.65
2022-12-23T20:34:50.371Z,11.97
2022-12-23T20:37:18.045Z,11.88
2022-12-23T20:39:45.927Z,11.85
2022-12-23T20:42:13.241Z,11.75
2022-12-23T20:44:40.493Z,11.83
2022-12-23T20:47:07.996Z,11.82
2022-12-23T20:49:35.305Z,11.99
2022-12-23T20:52:02.863Z,12.17
2022-12-23T20:54:33.649Z,12.01
2022-12-23T20:57:01.741Z,12.06
2022-12-23T20:59:29.194Z,12.02
2022-12-23T21:01:59.087Z,11.83
2022-12-23T21:04:26.790Z,12.06
2022-12-23T21:06:54.039Z,11.98
2022-12-23T21:09:21.499Z,11.97
2022-12-23T21:11:49.683Z,12.00
2022-12-23T21:14:17.093Z,12.01
2022-12-23T21:16:44.861Z,11.75
2022-12-23T21:19:16.401Z,11.88
2022-12-23T21:21:43.650Z,11.88
2022-12-23T21:24:11.253Z,11.56
2022-12-23T21:26:38.635Z,11.65
2022-12-23T21:29:06.744Z,11.70
2022-12-23T21:31:35.373Z,11.64
2022-12-23T21:34:02.801Z,11.76
2022-12-23T21:36:31.177Z,11.62
2022-12-23T21:38:59.096Z,11.58
2022-12-23T21:41:27.643Z,11.32
2022-12-23T21:43:55.946Z,10.99
2022-12-23T21:46:23.606Z,10.98
2022-12-23T21:48:51.017Z,11.14
2022-12-23T21:51:22.822Z,10.96
2022-12-23T21:53:51.323Z,10.51
2022-12-23T21:56:24.191Z,10.13
2022-12-23T21:58:55.921Z,10.26
2022-12-23T22:01:23.595Z,10.76
2022-12-23T22:03:52.114Z,10.01
2022-12-23T22:06:20.525Z,9.73
2022-12-23T22:08:48.066Z,10.28
2022-12-23T22:11:16.992Z,10.42
2022-12-23T22:13:44.340Z,10.49
2022-12-23T22:16:12.569Z,9.27
2022-12-23T22:18:40.384Z,9.64
2022-12-23T22:21:09.035Z,9.90
2022-12-23T22:23:36.831Z,10.07
2022-12-23T22:26:04.569Z,10.38
2022-12-23T22:28:32.316Z,10.17
2022-12-23T22:31:06.319Z,10.60
2022-12-23T22:33:34.064Z,10.52
2022-12-23T22:36:01.360Z,10.78
2022-12-23T22:38:28.686Z,10.71
2022-12-23T22:40:56.198Z,10.77
2022-12-23T22:43:23.432Z,10.77
2022-12-23T22:45:57.161Z,10.92
2022-12-23T22:48:25.840Z,10.83
2022-12-23T22:51:00.679Z,10.80
2022-12-23T22:53:30.010Z,10.87
2022-12-23T22:56:01.024Z,10.79
2022-12-23T22:58:29.148Z,11.05
2022-12-23T23:00:56.495Z,11.09
2022-12-23T23:03:25.590Z,11.15
2022-12-23T23:06:03.557Z,11.24
2022-12-23T23:08:31.098Z,11.13
2022-12-23T23:10:59.303Z,11.10
2022-12-23T23:13:27.589Z,11.12
2022-12-23T23:15:56.000Z,11.13
2022-12-23T23:18:23.918Z,11.21
2022-12-23T23:20:51.061Z,11.21
2022-12-23T23:23:18.236Z,11.15
2022-12-23T23:25:45.892Z,11.10
2022-12-23T23:28:13.422Z,11.00
2022-12-23T23:30:40.735Z,11.06
2022-12-23T23:33:08.407Z,11.11
2022-12-23T23:35:35.612Z,10.82
2022-12-23T23:38:02.800Z,11.17
2022-12-23T23:40:30.261Z,11.04
2022-12-23T23:42:57.368Z,11.10
2022-12-23T23:45:24.621Z,11.11
2022-12-23T23:47:52.112Z,11.21
2022-12-23T23:50:19.404Z,11.32
2022-12-23T23:52:46.581Z,11.33
2022-12-23T23:55:14.041Z,11.11
2022-12-23T23:57:41.245Z,11.03
